createdAt,value
2023-02-28T00:00:33.826Z,-0.31
2023-02-28T00:01:35.004Z,-0.32
2023-02-28T00:02:34.065Z,-0.32
2023-02-28T00:03:34.143Z,-0.36
2023-02-28T00:04:33.926Z,-0.39
2023-02-28T00:05:33.877Z,-0.39
2023-02-28T00:06:33.878Z,-0.38
2023-02-28T00:07:33.826Z,-0.34
2023-02-28T00:08:33.811Z,-0.31
2023-02-28T00:09:33.734Z,-0.35
2023-02-28T00:10:33.682Z,-0.39
2023-02-28T00:11:34.388Z,-0.43
2023-02-28T00:12:33.646Z,-0.39
2023-02-28T00:13:33.598Z,-0.38
2023-02-28T00:14:33.551Z,-0.39
2023-02-28T00:15:33.502Z,-0.39
2023-02-28T00:16:33.554Z,-0.38
2023-02-28T00:17:33.428Z,-0.35
2023-02-28T00:18:36.175Z,-0.46
2023-02-28T00:19:33.352Z,-0.49
2023-02-28T00:20:33.390Z,-0.43
2023-02-28T00:21:34.126Z,-0.53
2023-02-28T00:22:33.266Z,-0.46
2023-02-28T00:23:33.224Z,-0.43
2023-02-28T00:24:33.184Z,-0.52
2023-02-28T00:25:33.129Z,-0.57
2023-02-28T00:26:33.087Z,-0.54
2023-02-28T00:27:33.071Z,-0.64
2023-02-28T00:28:33.026Z,-0.53
2023-02-28T00:29:32.977Z,-0.67
2023-02-28T00:30:33.082Z,-0.57
2023-02-28T00:31:33.516Z,-0.67
2023-02-28T00:32:32.848Z,-0.67
2023-02-28T00:33:32.856Z,-0.65
2023-02-28T00:34:32.801Z,-0.62
2023-02-28T00:35:32.825Z,-0.65
2023-02-28T00:36:32.815Z,-0.71
2023-02-28T00:37:32.653Z,-0.68
2023-02-28T00:38:32.644Z,-0.72
2023-02-28T00:39:32.583Z,-0.72
2023-02-28T00:40:32.569Z,-0.77
2023-02-28T00:41:33.274Z,-0.75
2023-02-28T00:42:32.468Z,-0.77
2023-02-28T00:43:32.440Z,-0.71
2023-02-28T00:44:32.420Z,-0.8
2023-02-28T00:45:32.381Z,-0.82
2023-02-28T00:46:32.569Z,-0.85
2023-02-28T00:47:32.653Z,-0.82
2023-02-28T00:48:32.230Z,-0.86
2023-02-28T00:49:32.224Z,-0.8
2023-02-28T00:50:32.209Z,-0.86
2023-02-28T00:51:33.037Z,-0.91
2023-02-28T00:52:32.240Z,-0.91
2023-02-28T00:53:32.098Z,-0.86
2023-02-28T00:54:32.029Z,-0.82
2023-02-28T00:55:31.980Z,-0.91
2023-02-28T00:56:32.105Z,-0.94
2023-02-28T00:57:31.888Z,-0.91
2023-02-28T00:58:31.847Z,-0.83
2023-02-28T00:59:31.811Z,-0.89
2023-02-28T01:00:31.770Z,-0.89
2023-02-28T01:01:32.936Z,-0.91
2023-02-28T01:02:31.692Z,-0.89
2023-02-28T01:03:31.659Z,-0.96
2023-02-28T01:04:31.900Z,-0.85
2023-02-28T01:05:31.593Z,-1.02
2023-02-28T01:06:31.568Z,-0.93
2023-02-28T01:07:31.499Z,-0.94
2023-02-28T01:08:31.463Z,-1.04
2023-02-28T01:09:31.425Z,-1.01
2023-02-28T01:10:31.409Z,-1.15
2023-02-28T01:11:32.040Z,-1.08
2023-02-28T01:12:33.118Z,-1.02
2023-02-28T01:13:31.128Z,-1.05
2023-02-28T01:14:31.246Z,-1.05
2023-02-28T01:15:31.333Z,-1.15
2023-02-28T01:16:31.170Z,-1.05
2023-02-28T01:17:31.147Z,-1.12
2023-02-28T01:18:31.113Z,-1.08
2023-02-28T01:19:31.038Z,-1.11
2023-02-28T01:20:31.010Z,-1.05
2023-02-28T01:21:31.632Z,-1.04
2023-02-28T01:22:30.944Z,-1.11
2023-02-28T01:23:30.877Z,-1.14
2023-02-28T01:24:30.850Z,-1.07
2023-02-28T01:25:30.906Z,-1.11
2023-02-28T01:26:30.791Z,-1.15
2023-02-28T01:27:30.729Z,-1.14
2023-02-28T01:28:30.721Z,-1.04
2023-02-28T01:29:30.666Z,-1.11
2023-02-28T01:30:30.611Z,-1.11
2023-02-28T01:31:31.752Z,-1.02
2023-02-28T01:32:30.644Z,-1.05
2023-02-28T01:33:30.496Z,-1.08
2023-02-28T01:34:30.455Z,-1.14
2023-02-28T01:35:30.517Z,-1.05
2023-02-28T01:36:30.381Z,-0.99
2023-02-28T01:37:30.498Z,-1.12
2023-02-28T01:38:30.331Z,-1.09
2023-02-28T01:39:30.277Z,-1.09
2023-02-28T01:40:30.221Z,-1.12
2023-02-28T01:41:31.284Z,-1.15
2023-02-28T01:42:30.177Z,-1.12
2023-02-28T01:43:30.163Z,-1.15
2023-02-28T01:44:30.103Z,-1.11
2023-02-28T01:45:30.032Z,-1.23
2023-02-28T01:46:30.108Z,-1.25
2023-02-28T01:47:29.961Z,-1.27
2023-02-28T01:48:29.916Z,-1.26
2023-02-28T01:49:29.871Z,-1.22
2023-02-28T01:50:29.824Z,-1.2
2023-02-28T01:51:30.650Z,-1.08
2023-02-28T01:52:29.747Z,-1.08
2023-02-28T01:53:29.760Z,-1.17
2023-02-28T01:54:29.711Z,-1.23
2023-02-28T01:55:29.776Z,-1.12
2023-02-28T01:56:29.596Z,-1.26
2023-02-28T01:57:29.574Z,-1.22
2023-02-28T01:58:29.546Z,-1.23
2023-02-28T01:59:29.476Z,-1.27
2023-02-28T02:00:29.476Z,-1.26
2023-02-28T02:01:30.222Z,-1.22
2023-02-28T02:02:29.574Z,-1.25
2023-02-28T02:03:29.329Z,-1.27
2023-02-28T02:04:29.290Z,-1.22
2023-02-28T02:05:29.267Z,-1.2
2023-02-28T02:06:29.217Z,-1.22
2023-02-28T02:07:29.165Z,-1.26
2023-02-28T02:08:29.375Z,-1.25
2023-02-28T02:09:29.124Z,-1.23
2023-02-28T02:10:29.076Z,-1.19
2023-02-28T02:11:29.593Z,-1.26
2023-02-28T02:12:28.969Z,-1.25
2023-02-28T02:13:28.943Z,-1.22
2023-02-28T02:14:28.943Z,-1.2
2023-02-28T02:15:28.864Z,-1.27
2023-02-28T02:16:28.969Z,-1.23
2023-02-28T02:17:28.787Z,-1.3
2023-02-28T02:18:28.751Z,-1.32
2023-02-28T02:19:28.701Z,-1.35
2023-02-28T02:20:28.661Z,-1.37
2023-02-28T02:21:28.881Z,-1.32
2023-02-28T02:22:28.585Z,-1.38
2023-02-28T02:23:28.540Z,-1.38
2023-02-28T02:24:28.501Z,-1.38
2023-02-28T02:25:28.463Z,-1.3
2023-02-28T02:26:28.529Z,-1.4
2023-02-28T02:27:28.389Z,-1.38
2023-02-28T02:28:28.364Z,-1.43
2023-02-28T02:29:28.319Z,-1.44
2023-02-28T02:30:28.288Z,-1.33
2023-02-28T02:31:28.800Z,-1.4
2023-02-28T02:32:28.479Z,-1.4
2023-02-28T02:33:28.158Z,-1.35
2023-02-28T02:34:28.110Z,-1.38
2023-02-28T02:35:28.266Z,-1.43
2023-02-28T02:36:28.050Z,-1.32
2023-02-28T02:37:28.005Z,-1.44
2023-02-28T02:38:27.960Z,-1.33
2023-02-28T02:39:27.923Z,-1.35
2023-02-28T02:40:27.877Z,-1.32
2023-02-28T02:41:28.228Z,-1.46
2023-02-28T02:42:27.863Z,-1.44
2023-02-28T02:43:27.551Z,-1.41
2023-02-28T02:44:27.732Z,-1.43
2023-02-28T02:45:27.560Z,-1.41
2023-02-28T02:46:27.848Z,-1.43
2023-02-28T02:47:27.627Z,-1.53
2023-02-28T02:48:27.588Z,-1.5
2023-02-28T02:49:27.520Z,-1.51
2023-02-28T02:50:27.486Z,-1.58
2023-02-28T02:51:27.696Z,-1.56
2023-02-28T02:52:27.419Z,-1.53
2023-02-28T02:53:27.412Z,-1.47
2023-02-28T02:54:27.340Z,-1.59
2023-02-28T02:55:27.294Z,-1.59
2023-02-28T02:56:27.253Z,-1.61
2023-02-28T02:57:27.208Z,-1.58
2023-02-28T02:58:27.214Z,-1.62
2023-02-28T02:59:27.506Z,-1.59
2023-02-28T03:00:27.106Z,-1.59
2023-02-28T03:01:27.633Z,-1.64
2023-02-28T03:02:27.052Z,-1.66
2023-02-28T03:03:27.033Z,-1.59
2023-02-28T03:04:26.968Z,-1.64
2023-02-28T03:05:26.929Z,-1.71
2023-02-28T03:06:26.872Z,-1.79
2023-02-28T03:07:26.902Z,-1.71
2023-02-28T03:08:26.802Z,-1.76
2023-02-28T03:09:26.741Z,-1.72
2023-02-28T03:10:26.712Z,-1.77
2023-02-28T03:11:27.052Z,-1.72
2023-02-28T03:12:26.640Z,-1.71
2023-02-28T03:13:26.619Z,-1.69
2023-02-28T03:14:26.590Z,-1.76
2023-02-28T03:15:26.512Z,-1.8
2023-02-28T03:16:26.804Z,-1.72
2023-02-28T03:17:26.434Z,-1.69
2023-02-28T03:18:26.430Z,-1.72
2023-02-28T03:19:26.386Z,-1.79
2023-02-28T03:20:26.362Z,-1.77
2023-02-28T03:21:26.270Z,-1.92
2023-02-28T03:22:26.237Z,-1.86
2023-02-28T03:23:26.212Z,-1.86
2023-02-28T03:24:26.171Z,-1.95
2023-02-28T03:25:26.334Z,-1.9
2023-02-28T03:26:26.088Z,-1.87
2023-02-28T03:27:26.055Z,-1.94
2023-02-28T03:28:26.021Z,-1.94
2023-02-28T03:29:25.962Z,-1.98
2023-02-28T03:30:25.958Z,-1.9
2023-02-28T03:31:26.022Z,-1.95
2023-02-28T03:32:26.016Z,-1.92
2023-02-28T03:33:25.826Z,-1.95
2023-02-28T03:34:25.825Z,-1.92
2023-02-28T03:35:25.891Z,-1.95
2023-02-28T03:36:25.740Z,-2.02
2023-02-28T03:37:25.869Z,-1.9
2023-02-28T03:38:25.605Z,-1.97
2023-02-28T03:39:25.586Z,-1.94
2023-02-28T03:40:25.558Z,-1.92
2023-02-28T03:41:25.492Z,-1.95
2023-02-28T03:42:25.465Z,-1.98
2023-02-28T03:43:25.404Z,-1.95
2023-02-28T03:44:25.393Z,-2.04
2023-02-28T03:45:25.346Z,-2.04
2023-02-28T03:46:25.392Z,-2.01
2023-02-28T03:47:25.269Z,-2.12
2023-02-28T03:48:25.217Z,-2.05
2023-02-28T03:49:25.184Z,-2.05
2023-02-28T03:50:25.178Z,-2.1
2023-02-28T03:51:25.125Z,-2.04
2023-02-28T03:52:25.082Z,-2.1
2023-02-28T03:53:25.034Z,-2.07
2023-02-28T03:54:24.990Z,-2.12
2023-02-28T03:55:24.953Z,-2.01
2023-02-28T03:56:24.927Z,-2.05
2023-02-28T03:57:24.866Z,-2.01
2023-02-28T03:58:24.822Z,-2.12
2023-02-28T03:59:24.792Z,-2.04
2023-02-28T04:00:26.232Z,-2.04
2023-02-28T04:01:24.911Z,-2.01
2023-02-28T04:02:24.691Z,-1.95
2023-02-28T04:03:24.632Z,-2
2023-02-28T04:04:24.762Z,-2.04
2023-02-28T04:05:24.664Z,-1.97
2023-02-28T04:06:24.585Z,-2.01
2023-02-28T04:07:24.488Z,-2.02
2023-02-28T04:08:24.447Z,-2.13
2023-02-28T04:09:24.392Z,-2.05
2023-02-28T04:10:24.371Z,-2.1
2023-02-28T04:11:24.447Z,-2.15
2023-02-28T04:12:24.309Z,-2.21
2023-02-28T04:13:24.227Z,-2.25
2023-02-28T04:14:24.219Z,-2.25
2023-02-28T04:15:24.147Z,-2.21
2023-02-28T04:16:38.721Z,-2.18
2023-02-28T04:17:24.087Z,-2.21
2023-02-28T04:18:24.057Z,-2.22
2023-02-28T04:19:23.993Z,-2.32
2023-02-28T04:20:23.961Z,-2.25
2023-02-28T04:21:25.083Z,-2.26
2023-02-28T04:22:23.903Z,-2.28
2023-02-28T04:23:23.827Z,-2.25
2023-02-28T04:24:23.823Z,-2.21
2023-02-28T04:25:23.535Z,-2.3
2023-02-28T04:26:23.714Z,-2.23
2023-02-28T04:27:23.674Z,-2.26
2023-02-28T04:28:23.638Z,-2.25
2023-02-28T04:29:23.593Z,-2.26
2023-02-28T04:30:23.561Z,-2.25
2023-02-28T04:31:23.655Z,-2.35
2023-02-28T04:32:23.843Z,-2.41
2023-02-28T04:33:23.439Z,-2.37
2023-02-28T04:34:23.416Z,-2.37
2023-02-28T04:35:23.404Z,-2.37
2023-02-28T04:36:23.337Z,-2.4
2023-02-28T04:37:23.274Z,-2.42
2023-02-28T04:38:23.274Z,-2.45
2023-02-28T04:39:23.213Z,-2.44
2023-02-28T04:40:23.195Z,-2.48
2023-02-28T04:41:23.125Z,-2.47
2023-02-28T04:42:23.079Z,-2.48
2023-02-28T04:43:23.037Z,-2.45
2023-02-28T04:44:23.010Z,-2.44
2023-02-28T04:45:22.980Z,-2.42
2023-02-28T04:46:22.916Z,-2.47
2023-02-28T04:47:22.935Z,-2.52
2023-02-28T04:48:24.730Z,-2.44
2023-02-28T04:49:22.805Z,-2.47
2023-02-28T04:50:22.800Z,-2.53
2023-02-28T04:51:22.716Z,-2.59
2023-02-28T04:52:22.679Z,-2.55
2023-02-28T04:53:22.650Z,-2.48
2023-02-28T04:54:22.625Z,-2.48
2023-02-28T04:55:22.554Z,-2.52
2023-02-28T04:56:22.549Z,-2.56
2023-02-28T04:57:22.478Z,-2.55
2023-02-28T04:58:22.433Z,-2.56
2023-02-28T04:59:22.427Z,-2.47
2023-02-28T05:00:22.393Z,-2.48
2023-02-28T05:01:22.336Z,-2.48
2023-02-28T05:02:22.442Z,-2.48
2023-02-28T05:03:22.245Z,-2.53
2023-02-28T05:04:22.290Z,-2.5
2023-02-28T05:05:22.171Z,-2.52
2023-02-28T05:06:22.161Z,-2.53
2023-02-28T05:07:22.094Z,-2.44
2023-02-28T05:08:22.039Z,-2.48
2023-02-28T05:09:22.007Z,-2.37
2023-02-28T05:10:21.983Z,-2.44
2023-02-28T05:11:21.937Z,-2.42
2023-02-28T05:12:21.912Z,-2.45
2023-02-28T05:13:21.839Z,-2.45
2023-02-28T05:14:21.797Z,-2.47
2023-02-28T05:15:21.760Z,-2.41
2023-02-28T05:16:22.054Z,-2.38
2023-02-28T05:17:21.680Z,-2.44
2023-02-28T05:18:21.692Z,-2.42
2023-02-28T05:19:21.628Z,-2.47
2023-02-28T05:20:21.565Z,-2.41
2023-02-28T05:21:21.553Z,-2.37
2023-02-28T05:22:21.510Z,-2.48
2023-02-28T05:23:21.433Z,-2.5
2023-02-28T05:24:21.404Z,-2.47
2023-02-28T05:25:21.475Z,-2.44
2023-02-28T05:26:21.360Z,-2.47
2023-02-28T05:27:21.285Z,-2.47
2023-02-28T05:28:21.286Z,-2.45
2023-02-28T05:29:21.215Z,-2.47
2023-02-28T05:30:21.162Z,-2.41
2023-02-28T05:31:21.302Z,-2.48
2023-02-28T05:32:21.172Z,-2.47
2023-02-28T05:33:21.050Z,-2.48
2023-02-28T05:34:21.003Z,-2.47
2023-02-28T05:35:20.720Z,-2.47
2023-02-28T05:36:20.936Z,-2.5
2023-02-28T05:37:22.536Z,-2.52
2023-02-28T05:38:20.892Z,-2.5
2023-02-28T05:39:20.808Z,-2.48
2023-02-28T05:40:20.784Z,-2.48
2023-02-28T05:41:20.721Z,-2.48
2023-02-28T05:42:20.711Z,-2.44
2023-02-28T05:43:20.653Z,-2.53
2023-02-28T05:44:20.660Z,-2.5
2023-02-28T05:45:20.692Z,-2.53
2023-02-28T05:46:20.524Z,-2.58
2023-02-28T05:47:20.490Z,-2.59
2023-02-28T05:48:20.441Z,-2.48
2023-02-28T05:49:20.420Z,-2.55
2023-02-28T05:50:20.384Z,-2.48
2023-02-28T05:51:20.395Z,-2.65
2023-02-28T05:52:20.291Z,-2.47
2023-02-28T05:53:20.254Z,-2.52
2023-02-28T05:54:20.248Z,-2.52
2023-02-28T05:55:20.180Z,-2.52
2023-02-28T05:56:20.144Z,-2.47
2023-02-28T05:57:28.868Z,-2.52
2023-02-28T05:58:20.072Z,-2.53
2023-02-28T05:59:20.024Z,-2.48
2023-02-28T06:00:20.009Z,-2.5
2023-02-28T06:01:19.930Z,-2.48
2023-02-28T06:02:20.117Z,-2.6
2023-02-28T06:03:19.975Z,-2.62
2023-02-28T06:04:35.367Z,-2.59
2023-02-28T06:05:19.793Z,-2.63
2023-02-28T06:06:19.749Z,-2.6
2023-02-28T06:07:19.692Z,-2.62
2023-02-28T06:08:19.651Z,-2.63
2023-02-28T06:09:19.625Z,-2.66
2023-02-28T06:10:19.621Z,-2.56
2023-02-28T06:11:19.536Z,-2.6
2023-02-28T06:12:19.499Z,-2.62
2023-02-28T06:13:19.468Z,-2.65
2023-02-28T06:14:19.494Z,-2.65
2023-02-28T06:15:19.390Z,-2.6
2023-02-28T06:16:19.471Z,-2.63
2023-02-28T06:17:19.292Z,-2.66
2023-02-28T06:18:19.284Z,-2.73
2023-02-28T06:19:19.216Z,-2.6
2023-02-28T06:20:18.941Z,-2.73
2023-02-28T06:21:19.152Z,-2.78
2023-02-28T06:22:19.117Z,-2.66
2023-02-28T06:23:19.052Z,-2.65
2023-02-28T06:24:19.050Z,-2.63
2023-02-28T06:25:18.984Z,-2.71
2023-02-28T06:26:18.962Z,-2.62
2023-02-28T06:27:18.917Z,-2.63
2023-02-28T06:28:18.855Z,-2.69
2023-02-28T06:29:18.814Z,-2.69
2023-02-28T06:30:18.804Z,-2.48
2023-02-28T06:31:19.028Z,-2.53
2023-02-28T06:32:19.042Z,-2.47
2023-02-28T06:33:18.722Z,-2.47
2023-02-28T06:34:18.679Z,-2.48
2023-02-28T06:35:18.579Z,-2.45
2023-02-28T06:36:18.554Z,-2.44
2023-02-28T06:37:18.503Z,-2.41
2023-02-28T06:38:18.473Z,-2.38
2023-02-28T06:39:18.428Z,-2.4
2023-02-28T06:40:18.424Z,-2.3
2023-02-28T06:41:18.351Z,-2.38
2023-02-28T06:42:18.379Z,-2.34
2023-02-28T06:43:18.268Z,-2.25
2023-02-28T06:44:18.224Z,-2.25
2023-02-28T06:45:18.198Z,-2.3
2023-02-28T06:46:18.386Z,-2.26
2023-02-28T06:47:18.109Z,-2.32
2023-02-28T06:48:18.097Z,-2.25
2023-02-28T06:49:18.049Z,-2.25
2023-02-28T06:50:17.997Z,-2.25
2023-02-28T06:51:17.944Z,-2.25
2023-02-28T06:52:17.909Z,-2.21
2023-02-28T06:53:17.867Z,-2.22
2023-02-28T06:54:17.840Z,-2.19
2023-02-28T06:55:17.805Z,-2.19
2023-02-28T06:56:17.767Z,-2.16
2023-02-28T06:57:17.706Z,-2.19
2023-02-28T06:58:17.692Z,-2.15
2023-02-28T06:59:17.654Z,-2.15
2023-02-28T07:00:17.616Z,-2.23
2023-02-28T07:01:17.697Z,-2.1
2023-02-28T07:02:17.536Z,-2.08
2023-02-28T07:03:17.498Z,-2.16
2023-02-28T07:04:17.590Z,-2.16
2023-02-28T07:05:17.391Z,-2.18
2023-02-28T07:06:17.363Z,-2.12
2023-02-28T07:07:17.300Z,-2.04
2023-02-28T07:08:17.268Z,-2.08
2023-02-28T07:09:17.349Z,-2.07
2023-02-28T07:10:19.075Z,-2.04
2023-02-28T07:11:17.258Z,-1.98
2023-02-28T07:12:16.865Z,-2.02
2023-02-28T07:13:17.064Z,-1.97
2023-02-28T07:14:17.110Z,-2.07
2023-02-28T07:15:16.989Z,-1.97
2023-02-28T07:16:17.171Z,-1.98
2023-02-28T07:17:16.910Z,-1.94
2023-02-28T07:18:16.894Z,-1.95
2023-02-28T07:19:16.838Z,-1.98
2023-02-28T07:20:16.822Z,-1.92
2023-02-28T07:21:16.774Z,-1.98
2023-02-28T07:22:18.521Z,-2.01
2023-02-28T07:23:16.668Z,-1.95
2023-02-28T07:24:16.658Z,-1.97
2023-02-28T07:25:16.590Z,-1.97
2023-02-28T07:26:16.557Z,-1.98
2023-02-28T07:27:16.521Z,-1.9
2023-02-28T07:28:16.484Z,-1.94
2023-02-28T07:29:16.203Z,-1.92
2023-02-28T07:30:16.504Z,-1.92
2023-02-28T07:31:16.455Z,-1.92
2023-02-28T07:32:16.539Z,-1.69
2023-02-28T07:33:16.285Z,-1.76
2023-02-28T07:34:16.332Z,-1.69
2023-02-28T07:35:16.210Z,-1.68
2023-02-28T07:36:16.425Z,-1.59
2023-02-28T07:37:16.170Z,-1.51
2023-02-28T07:38:16.100Z,-1.47
2023-02-28T07:39:16.052Z,-1.4
2023-02-28T07:40:16.051Z,-1.48
2023-02-28T07:41:15.972Z,-1.33
2023-02-28T07:42:15.931Z,-1.35
2023-02-28T07:43:15.896Z,-1.27
2023-02-28T07:44:15.852Z,-1.27
2023-02-28T07:45:15.820Z,-1.15
2023-02-28T07:46:15.953Z,-1.04
2023-02-28T07:47:15.742Z,-1.01
2023-02-28T07:48:15.956Z,-1.09
2023-02-28T07:49:15.699Z,-1.01
2023-02-28T07:50:15.658Z,-1.11
2023-02-28T07:51:15.713Z,-1.01
2023-02-28T07:52:17.091Z,-0.94
2023-02-28T07:53:15.291Z,-0.91
2023-02-28T07:54:15.490Z,-0.91
2023-02-28T07:55:15.482Z,-0.77
2023-02-28T07:56:15.422Z,-0.82
2023-02-28T07:57:15.361Z,-0.85
2023-02-28T07:58:15.340Z,-0.93
2023-02-28T07:59:15.599Z,-0.8
2023-02-28T08:00:15.357Z,-0.86
2023-02-28T08:01:14.980Z,-0.89
2023-02-28T08:02:15.336Z,-0.91
2023-02-28T08:03:15.143Z,-0.91
2023-02-28T08:04:15.104Z,-0.86
2023-02-28T08:05:15.243Z,-1.01
2023-02-28T08:06:15.054Z,-0.97
2023-02-28T08:07:14.986Z,-0.94
2023-02-28T08:08:14.992Z,-0.9
2023-02-28T08:09:14.902Z,-0.9
2023-02-28T08:10:15.408Z,-0.86
2023-02-28T08:11:14.885Z,-0.83
2023-02-28T08:12:14.823Z,-0.89
2023-02-28T08:13:14.774Z,-0.83
2023-02-28T08:14:14.728Z,-0.89
2023-02-28T08:15:14.455Z,-0.89
2023-02-28T08:16:14.805Z,-0.91
2023-02-28T08:17:14.607Z,-0.83
2023-02-28T08:18:14.617Z,-0.85
2023-02-28T08:19:14.284Z,-0.82
2023-02-28T08:20:14.254Z,-0.77
2023-02-28T08:21:14.733Z,-0.7
2023-02-28T08:22:14.448Z,-0.61
2023-02-28T08:23:14.373Z,-0.72
2023-02-28T08:24:14.122Z,-0.64
2023-02-28T08:25:14.326Z,-0.54
2023-02-28T08:26:14.260Z,-0.59
2023-02-28T08:27:14.230Z,-0.62
2023-02-28T08:28:14.322Z,-0.53
2023-02-28T08:29:14.161Z,-0.44
2023-02-28T08:30:14.115Z,-0.53
2023-02-28T08:31:13.947Z,-0.38
2023-02-28T08:32:33.227Z,-0.36
2023-02-28T08:33:14.103Z,-0.21
2023-02-28T08:34:13.984Z,-0.28
2023-02-28T08:35:13.986Z,-0.17
2023-02-28T08:36:14.030Z,-0.08
2023-02-28T08:37:13.849Z,-0.07
2023-02-28T08:38:13.826Z,-0.06
2023-02-28T08:39:13.772Z,0.07
2023-02-28T08:40:13.800Z,0.05
2023-02-28T08:41:13.704Z,0.05
2023-02-28T08:42:13.413Z,0.18
2023-02-28T08:43:13.624Z,0.07
2023-02-28T08:44:13.579Z,0.23
2023-02-28T08:45:13.541Z,0.25
2023-02-28T08:46:13.883Z,0.21
2023-02-28T08:47:13.247Z,0.28
2023-02-28T08:48:13.421Z,0.29
2023-02-28T08:49:13.385Z,0.41
2023-02-28T08:50:13.393Z,0.4
2023-02-28T08:51:13.493Z,0.52
2023-02-28T08:52:13.284Z,0.46
2023-02-28T08:53:13.238Z,0.58
2023-02-28T08:54:13.290Z,0.55
2023-02-28T08:55:13.254Z,0.7
2023-02-28T08:56:12.918Z,0.63
2023-02-28T08:57:13.099Z,0.65
2023-02-28T08:58:13.102Z,0.66
2023-02-28T08:59:13.007Z,0.73
2023-02-28T09:00:12.971Z,0.68
2023-02-28T09:01:13.323Z,0.83
2023-02-28T09:02:12.898Z,0.78
2023-02-28T09:03:12.861Z,0.83
2023-02-28T09:04:13.752Z,0.83
2023-02-28T09:05:12.828Z,0.88
2023-02-28T09:06:12.811Z,0.92
2023-02-28T09:07:12.717Z,0.95
2023-02-28T09:08:12.684Z,0.95
2023-02-28T09:09:12.439Z,0.98
2023-02-28T09:10:12.650Z,0.99
2023-02-28T09:11:12.600Z,1.01
2023-02-28T09:12:12.622Z,1.01
2023-02-28T09:13:12.522Z,1.1
2023-02-28T09:14:12.218Z,1.16
2023-02-28T09:15:12.423Z,1.23
2023-02-28T09:16:12.430Z,1.3
2023-02-28T09:17:12.511Z,1.28
2023-02-28T09:18:12.061Z,1.38
2023-02-28T09:19:12.266Z,1.42
2023-02-28T09:20:12.260Z,1.44
2023-02-28T09:21:12.195Z,1.49
2023-02-28T09:22:12.199Z,1.48
2023-02-28T09:23:12.133Z,1.48
2023-02-28T09:24:12.093Z,1.48
2023-02-28T09:25:12.060Z,1.59
2023-02-28T09:26:12.076Z,1.58
2023-02-28T09:27:13.184Z,1.58
2023-02-28T09:28:11.972Z,1.67
2023-02-28T09:29:11.950Z,1.67
2023-02-28T09:30:11.889Z,1.68
2023-02-28T09:31:12.024Z,1.56
2023-02-28T09:32:12.089Z,1.59
2023-02-28T09:33:11.792Z,1.66
2023-02-28T09:34:11.903Z,1.59
2023-02-28T09:35:11.696Z,1.71
2023-02-28T09:36:11.771Z,1.76
2023-02-28T09:37:11.634Z,1.78
2023-02-28T09:38:11.615Z,1.76
2023-02-28T09:39:11.601Z,1.78
2023-02-28T09:40:11.534Z,1.78
2023-02-28T09:41:11.469Z,1.78
2023-02-28T09:42:11.452Z,1.78
2023-02-28T09:43:11.412Z,1.81
2023-02-28T09:44:11.394Z,1.85
2023-02-28T09:45:11.309Z,1.95
2023-02-28T09:46:11.524Z,2.02
2023-02-28T09:47:11.253Z,2.06
2023-02-28T09:48:10.990Z,2.14
2023-02-28T09:49:11.183Z,2.17
2023-02-28T09:50:11.128Z,2.14
2023-02-28T09:51:11.272Z,2.31
2023-02-28T09:52:10.828Z,2.29
2023-02-28T09:53:11.027Z,2.28
2023-02-28T09:54:10.841Z,2.35
2023-02-28T09:55:12.431Z,2.42
2023-02-28T09:56:10.918Z,2.43
2023-02-28T09:57:11.349Z,2.39
2023-02-28T09:58:10.880Z,2.44
2023-02-28T09:59:10.825Z,2.49
2023-02-28T10:00:10.961Z,2.56
2023-02-28T10:01:11.186Z,2.62
2023-02-28T10:02:10.703Z,2.62
2023-02-28T10:03:10.681Z,2.69
2023-02-28T10:04:10.641Z,2.6
2023-02-28T10:05:10.521Z,2.64
2023-02-28T10:06:10.571Z,2.69
2023-02-28T10:07:10.531Z,2.71
2023-02-28T10:08:10.510Z,2.67
2023-02-28T10:09:10.473Z,2.67
2023-02-28T10:10:10.482Z,2.67
2023-02-28T10:11:10.403Z,2.77
2023-02-28T10:12:10.386Z,2.82
2023-02-28T10:13:10.123Z,2.85
2023-02-28T10:14:10.323Z,2.92
2023-02-28T10:15:10.511Z,2.98
2023-02-28T10:16:10.215Z,2.93
2023-02-28T10:17:10.169Z,3.03
2023-02-28T10:18:15.632Z,3
2023-02-28T10:19:10.130Z,3.01
2023-02-28T10:20:10.132Z,3.08
2023-02-28T10:21:10.025Z,3.08
2023-02-28T10:22:10.109Z,3.18
2023-02-28T10:23:09.709Z,3.21
2023-02-28T10:24:09.704Z,3.14
2023-02-28T10:25:11.699Z,3.14
2023-02-28T10:26:09.849Z,3.26
2023-02-28T10:27:09.818Z,3.31
2023-02-28T10:28:09.785Z,3.32
2023-02-28T10:29:09.745Z,3.41
2023-02-28T10:30:09.734Z,3.42
2023-02-28T10:31:09.685Z,3.56
2023-02-28T10:32:09.917Z,3.58
2023-02-28T10:33:09.474Z,3.62
2023-02-28T10:34:09.330Z,3.69
2023-02-28T10:35:09.532Z,3.69
2023-02-28T10:36:09.409Z,3.66
2023-02-28T10:37:09.469Z,3.76
2023-02-28T10:38:09.468Z,3.74
2023-02-28T10:39:09.395Z,3.74
2023-02-28T10:40:09.396Z,3.87
2023-02-28T10:41:09.385Z,3.91
2023-02-28T10:42:09.337Z,3.87
2023-02-28T10:43:09.057Z,3.84
2023-02-28T10:44:09.224Z,3.91
2023-02-28T10:45:09.184Z,3.91
2023-02-28T10:46:09.414Z,3.96
2023-02-28T10:47:09.113Z,3.88
2023-02-28T10:48:09.121Z,3.99
2023-02-28T10:49:08.944Z,4.05
2023-02-28T10:50:09.034Z,4.1
2023-02-28T10:51:08.740Z,4.04
2023-02-28T10:52:09.069Z,4.01
2023-02-28T10:53:10.576Z,4.06
2023-02-28T10:54:08.623Z,4.01
2023-02-28T10:55:08.907Z,3.92
2023-02-28T10:56:08.802Z,4.01
2023-02-28T10:57:08.559Z,3.99
2023-02-28T10:58:08.731Z,4.01
2023-02-28T10:59:08.709Z,4.01
2023-02-28T11:00:08.700Z,4.05
2023-02-28T11:01:08.624Z,4.1
2023-02-28T11:02:10.876Z,4.04
2023-02-28T11:03:08.565Z,3.99
2023-02-28T11:04:08.595Z,4.01
2023-02-28T11:05:08.771Z,4.01
2023-02-28T11:06:08.456Z,4.12
2023-02-28T11:07:08.422Z,4.04
2023-02-28T11:08:08.377Z,4.19
2023-02-28T11:09:08.111Z,4.1
2023-02-28T11:10:08.319Z,4.22
2023-02-28T11:11:08.276Z,4.31
2023-02-28T11:12:07.769Z,4.31
2023-02-28T11:13:07.987Z,4.37
2023-02-28T11:14:08.212Z,4.42
2023-02-28T11:15:08.128Z,4.38
2023-02-28T11:16:08.287Z,4.53
2023-02-28T11:17:08.073Z,4.45
2023-02-28T11:18:08.101Z,4.38
2023-02-28T11:19:08.010Z,4.45
2023-02-28T11:20:08.010Z,4.4
2023-02-28T11:21:07.939Z,4.49
2023-02-28T11:22:07.972Z,4.44
2023-02-28T11:23:07.904Z,4.48
2023-02-28T11:24:07.819Z,4.52
2023-02-28T11:25:07.816Z,4.7
2023-02-28T11:26:07.768Z,4.56
2023-02-28T11:27:07.731Z,4.67
2023-02-28T11:28:07.744Z,4.63
2023-02-28T11:29:07.683Z,4.58
2023-02-28T11:30:07.715Z,4.58
2023-02-28T11:31:07.812Z,4.58
2023-02-28T11:32:07.673Z,4.63
2023-02-28T11:33:07.664Z,4.62
2023-02-28T11:34:07.717Z,4.67
2023-02-28T11:35:07.479Z,4.66
2023-02-28T11:36:07.578Z,4.63
2023-02-28T11:37:07.379Z,4.6
2023-02-28T11:38:07.360Z,4.63
2023-02-28T11:39:07.404Z,4.59
2023-02-28T11:40:07.297Z,4.68
2023-02-28T11:41:07.238Z,4.71
2023-02-28T11:42:07.403Z,4.6
2023-02-28T11:43:07.181Z,4.62
2023-02-28T11:44:07.175Z,4.58
2023-02-28T11:45:07.184Z,4.53
2023-02-28T11:46:07.068Z,4.52
2023-02-28T11:47:07.041Z,4.52
2023-02-28T11:48:07.029Z,4.48
2023-02-28T11:49:06.976Z,4.53
2023-02-28T11:50:06.743Z,4.63
2023-02-28T11:51:06.896Z,4.58
2023-02-28T11:52:06.644Z,4.74
2023-02-28T11:53:06.962Z,4.75
2023-02-28T11:54:06.794Z,4.75
2023-02-28T11:55:06.756Z,4.84
2023-02-28T11:56:06.737Z,5.04
2023-02-28T11:57:06.702Z,5.05
2023-02-28T11:58:06.676Z,5.15
2023-02-28T11:59:06.620Z,5.25
2023-02-28T12:00:06.620Z,5.3
2023-02-28T12:01:06.598Z,5.3
2023-02-28T12:02:06.733Z,5.32
2023-02-28T12:03:06.665Z,5.41
2023-02-28T12:04:06.487Z,5.44
2023-02-28T12:05:08.987Z,5.59
2023-02-28T12:06:06.176Z,5.56
2023-02-28T12:07:06.384Z,5.61
2023-02-28T12:08:06.356Z,5.66
2023-02-28T12:09:06.309Z,5.66
2023-02-28T12:10:06.259Z,5.65
2023-02-28T12:11:06.230Z,5.68
2023-02-28T12:12:06.428Z,5.68
2023-02-28T12:13:06.154Z,5.68
2023-02-28T12:14:05.902Z,5.68
2023-02-28T12:15:06.096Z,5.8
2023-02-28T12:16:06.210Z,5.76
2023-02-28T12:17:06.077Z,5.84
2023-02-28T12:18:06.000Z,5.75
2023-02-28T12:19:05.980Z,5.65
2023-02-28T12:20:05.923Z,5.69
2023-02-28T12:21:05.909Z,5.73
2023-02-28T12:22:05.648Z,5.71
2023-02-28T12:23:05.616Z,5.73
2023-02-28T12:24:05.583Z,5.71
2023-02-28T12:25:05.767Z,5.57
2023-02-28T12:26:05.731Z,5.56
2023-02-28T12:27:05.708Z,5.41
2023-02-28T12:28:05.654Z,5.3
2023-02-28T12:29:05.386Z,5.3
2023-02-28T12:30:05.602Z,5.29
2023-02-28T12:31:05.562Z,5.26
2023-02-28T12:32:05.941Z,5.3
2023-02-28T12:33:05.534Z,5.35
2023-02-28T12:34:05.476Z,5.41
2023-02-28T12:35:05.189Z,5.43
2023-02-28T12:36:05.473Z,5.66
2023-02-28T12:37:05.436Z,5.68
2023-02-28T12:38:05.350Z,5.75
2023-02-28T12:39:05.288Z,5.9
2023-02-28T12:40:05.160Z,5.93
2023-02-28T12:41:05.381Z,5.94
2023-02-28T12:42:04.971Z,5.89
2023-02-28T12:43:05.164Z,5.93
2023-02-28T12:44:05.124Z,5.83
2023-02-28T12:45:05.124Z,5.9
2023-02-28T12:46:05.504Z,5.94
2023-02-28T12:47:05.035Z,5.94
2023-02-28T12:48:05.104Z,5.93
2023-02-28T12:49:05.026Z,6.08
2023-02-28T12:50:04.945Z,6.07
2023-02-28T12:51:06.500Z,6.17
2023-02-28T12:52:04.913Z,6.12
2023-02-28T12:53:04.915Z,6.19
2023-02-28T12:54:04.600Z,6.2
2023-02-28T12:55:04.789Z,6.28
2023-02-28T12:56:04.762Z,6.22
2023-02-28T12:57:04.703Z,6.26
2023-02-28T12:58:04.420Z,6.24
2023-02-28T12:59:04.641Z,6.36
2023-02-28T13:00:04.585Z,6.38
2023-02-28T13:01:04.664Z,6.3
2023-02-28T13:02:04.713Z,6.41
2023-02-28T13:03:06.346Z,6.39